createdAt,value
2023-06-28T04:03:20.369Z,11.82
2023-06-28T04:07:26.200Z,11.74
2023-06-28T04:11:29.148Z,11.81
2023-06-28T04:15:32.601Z,11.99
2023-06-28T04:19:36.867Z,12.03
2023-06-28T04:23:40.308Z,12.18
2023-06-28T04:27:42.823Z,12.28
2023-06-28T04:31:45.428Z,12.36
2023-06-28T04:35:49.334Z,12.53
2023-06-28T04:39:51.850Z,12.72
2023-06-28T04:43:56.599Z,12.87
2023-06-28T04:47:59.201Z,13.14
2023-06-28T04:52:03.120Z,13.43
2023-06-28T04:56:06.692Z,13.64
2023-06-28T05:00:12.680Z,13.74
2023-06-28T05:04:15.215Z,13.84
2023-06-28T05:08:19.125Z,13.93
2023-06-28T05:12:21.683Z,13.99
2023-06-28T05:16:24.276Z,14.12
2023-06-28T05:20:27.015Z,14.44
2023-06-28T05:24:30.960Z,14.68
2023-06-28T05:28:33.538Z,14.81
2023-06-28T05:32:36.182Z,15.01
2023-06-28T05:36:39.133Z,15.21
2023-06-28T05:40:43.586Z,15.42
2023-06-28T05:44:46.840Z,15.47
2023-06-28T05:48:52.277Z,15.65
2023-06-28T05:52:54.905Z,15.83
2023-06-28T05:56:59.349Z,15.96
2023-06-28T06:01:02.366Z,16.19
2023-06-28T06:05:06.388Z,16.49
2023-06-28T06:09:09.070Z,16.59
2023-06-28T06:13:13.290Z,16.86
2023-06-28T06:17:15.796Z,17.21
2023-06-28T06:21:18.367Z,17.51
2023-06-28T06:25:20.915Z,17.70
2023-06-28T06:29:24.790Z,17.96
2023-06-28T06:33:27.866Z,18.16
2023-06-28T06:37:30.559Z,18.44
2023-06-28T06:41:33.118Z,18.86
2023-06-28T06:45:36.978Z,19.07
2023-06-28T06:49:39.563Z,19.36
2023-06-28T06:53:42.181Z,19.65
2023-06-28T06:57:44.805Z,19.89
2023-06-28T07:01:49.356Z,19.72
2023-06-28T07:05:52.266Z,19.60
2023-06-28T07:09:54.970Z,19.69
2023-06-28T07:13:57.573Z,19.89
2023-06-28T07:18:01.535Z,20.05
2023-06-28T07:22:04.821Z,20.31
2023-06-28T07:26:07.276Z,20.23
2023-06-28T07:30:10.508Z,20.11
2023-06-28T07:34:15.860Z,20.33
2023-06-28T07:38:19.864Z,20.16
2023-06-28T07:42:22.885Z,20.10
2023-06-28T07:46:25.578Z,19.78
2023-06-28T07:50:29.492Z,19.75
2023-06-28T07:54:34.304Z,19.95
2023-06-28T07:58:37.815Z,20.05
2023-06-28T08:02:40.415Z,19.86
2023-06-28T08:06:44.392Z,20.16
2023-06-28T08:10:46.960Z,20.54
2023-06-28T08:14:49.514Z,20.72
2023-06-28T08:18:52.017Z,20.82
2023-06-28T08:22:55.919Z,20.96
2023-06-28T08:26:58.485Z,21.05
2023-06-28T08:31:01.362Z,21.14
2023-06-28T08:35:05.276Z,21.20
2023-06-28T08:39:09.192Z,20.76
2023-06-28T08:43:15.298Z,20.80
2023-06-28T08:47:18.021Z,20.95
2023-06-28T08:51:21.685Z,21.05
2023-06-28T08:55:25.773Z,20.94
2023-06-28T08:59:28.521Z,21.07
2023-06-28T09:03:32.734Z,21.04
2023-06-28T09:07:36.992Z,21.24
2023-06-28T09:11:41.025Z,21.50
2023-06-28T09:15:43.757Z,21.86
2023-06-28T09:19:46.569Z,21.67
2023-06-28T09:23:50.985Z,21.88
2023-06-28T09:27:56.689Z,21.97
2023-06-28T09:32:21.027Z,22.22
2023-06-28T09:36:24.675Z,22.47
2023-06-28T09:40:27.310Z,22.28
2023-06-28T09:44:32.337Z,22.47
2023-06-28T09:48:38.264Z,22.67
2023-06-28T09:52:44.023Z,22.84
2023-06-28T09:56:46.737Z,22.80
2023-06-28T10:00:51.676Z,22.57
2023-06-28T10:04:56.906Z,22.65
2023-06-28T10:09:00.775Z,22.99
2023-06-28T10:13:04.868Z,22.85
2023-06-28T10:17:10.141Z,22.61
2023-06-28T10:21:12.867Z,22.95
2023-06-28T10:25:15.830Z,23.01
2023-06-28T10:29:18.572Z,23.27
2023-06-28T10:33:24.463Z,23.06
2023-06-28T10:37:27.489Z,23.11
2023-06-28T10:41:29.939Z,23.08
2023-06-28T10:45:36.316Z,23.19
2023-06-28T10:49:42.080Z,23.15
2023-06-28T10:53:54.224Z,23.83
2023-06-28T10:58:07.406Z,24.07
2023-06-28T11:02:09.978Z,24.14
2023-06-28T11:06:15.179Z,24.31
2023-06-28T11:10:18.735Z,24.51
2023-06-28T11:14:26.351Z,24.51
2023-06-28T11:18:28.997Z,24.98
2023-06-28T11:22:51.666Z,24.98
2023-06-28T11:26:54.629Z,25.42
2023-06-28T11:30:57.434Z,25.46
2023-06-28T11:35:02.662Z,25.31
2023-06-28T11:39:08.162Z,25.44
2023-06-28T11:43:11.469Z,24.94
2023-06-28T11:47:14.759Z,25.45
2023-06-28T11:51:18.038Z,25.21
2023-06-28T11:55:22.251Z,25.78
2023-06-28T11:59:26.100Z,26.46
2023-06-28T12:03:33.510Z,26.72
2023-06-28T12:07:36.968Z,27.31
2023-06-28T12:11:50.925Z,27.31
2023-06-28T12:15:55.199Z,26.27
2023-06-28T12:19:57.728Z,25.69
2023-06-28T12:24:17.185Z,25.56
2023-06-28T12:28:21.110Z,25.92
2023-06-28T12:32:26.122Z,25.76
2023-06-28T12:36:28.676Z,25.87
2023-06-28T12:40:33.463Z,26.60
2023-06-28T12:44:51.327Z,27.04
2023-06-28T12:48:55.522Z,27.22
2023-06-28T12:52:58.104Z,26.76
2023-06-28T12:57:01.356Z,26.29
2023-06-28T13:01:05.447Z,26.55
2023-06-28T13:05:08.529Z,27.62
2023-06-28T13:09:11.659Z,27.74
2023-06-28T13:13:14.212Z,27.47
2023-06-28T13:17:18.117Z,26.91
2023-06-28T13:21:20.749Z,26.19
2023-06-28T13:25:23.170Z,27.11
2023-06-28T13:29:27.981Z,26.74
2023-06-28T13:33:31.897Z,27.60
2023-06-28T13:37:34.649Z,26.88
2023-06-28T13:41:37.249Z,26.55
2023-06-28T13:45:40.044Z,26.69
2023-06-28T13:49:44.117Z,26.68
2023-06-28T13:53:46.722Z,26.67
2023-06-28T13:57:49.362Z,26.52
2023-06-28T14:01:52.743Z,27.26
2023-06-28T14:05:56.699Z,26.41
2023-06-28T14:09:59.248Z,26.66
2023-06-28T14:14:01.807Z,26.42
2023-06-28T14:18:04.506Z,28.02
2023-06-28T14:22:08.325Z,28.75
2023-06-28T14:26:10.894Z,28.64
2023-06-28T14:30:14.286Z,28.37
2023-06-28T14:34:16.875Z,28.78
2023-06-28T14:38:20.750Z,27.85
2023-06-28T14:42:23.297Z,27.16
2023-06-28T14:46:25.861Z,27.66
2023-06-28T14:50:28.423Z,27.67
2023-06-28T14:54:33.027Z,27.68
2023-06-28T14:58:35.590Z,27.31
2023-06-28T15:02:38.263Z,28.10
2023-06-28T15:06:41.897Z,28.27
2023-06-28T15:10:45.812Z,30.18
2023-06-28T15:14:48.322Z,29.63
2023-06-28T15:18:50.878Z,29.64
2023-06-28T15:22:54.876Z,28.90
2023-06-28T15:26:59.853Z,27.75
2023-06-28T15:31:02.466Z,26.21
2023-06-28T15:35:05.375Z,25.99
2023-06-28T15:39:07.996Z,27.81
2023-06-28T15:43:11.739Z,29.37
2023-06-28T15:47:14.274Z,29.46
2023-06-28T15:51:16.832Z,30.45
2023-06-28T15:55:23.919Z,30.40
2023-06-28T15:59:27.770Z,32.38
2023-06-28T16:03:30.423Z,31.79
2023-06-28T16:07:33.111Z,31.78
2023-06-28T16:11:35.950Z,33.09
2023-06-28T16:15:39.790Z,31.56
2023-06-28T16:19:42.356Z,30.23
2023-06-28T16:23:45.207Z,31.16
2023-06-28T16:27:50.715Z,30.02
2023-06-28T16:31:54.600Z,30.62
2023-06-28T16:35:57.104Z,31.95
2023-06-28T16:39:59.801Z,30.94
2023-06-28T16:44:02.333Z,30.62
2023-06-28T16:48:06.927Z,29.16
2023-06-28T16:52:09.658Z,28.42
2023-06-28T16:56:12.292Z,29.41
2023-06-28T17:00:15.793Z,30.59
2023-06-28T17:04:19.669Z,30.47
2023-06-28T17:08:23.255Z,30.28
2023-06-28T17:12:25.866Z,30.53
2023-06-28T17:16:28.425Z,30.27
2023-06-28T17:20:32.727Z,30.22
2023-06-28T17:24:35.245Z,30.48
2023-06-28T17:28:40.817Z,30.98
2023-06-28T17:32:43.431Z,30.75
2023-06-28T17:36:47.943Z,30.53
2023-06-28T17:40:50.546Z,30.68
2023-06-28T17:44:53.089Z,33.01
2023-06-28T17:48:55.704Z,34.97
2023-06-28T17:52:59.590Z,33.93
2023-06-28T17:57:02.179Z,33.47
2023-06-28T18:01:05.086Z,32.48
2023-06-28T18:05:09.420Z,30.06
2023-06-28T18:09:13.323Z,30.54
2023-06-28T18:13:15.885Z,29.67
2023-06-28T18:17:18.475Z,29.08
2023-06-28T18:21:21.065Z,29.22
2023-06-28T18:25:24.988Z,28.84
2023-06-28T18:29:27.858Z,27.93
2023-06-28T18:33:30.449Z,27.42
2023-06-28T18:37:33.036Z,27.20
2023-06-28T18:41:40.492Z,26.82
2023-06-28T18:45:44.075Z,25.90
2023-06-28T18:49:47.025Z,25.69
2023-06-28T18:53:49.604Z,26.73
2023-06-28T18:57:56.260Z,26.47
2023-06-28T19:01:58.805Z,25.80
2023-06-28T19:06:01.376Z,25.38
2023-06-28T19:10:04.729Z,25.09
2023-06-28T19:14:08.686Z,24.64
2023-06-28T19:18:11.270Z,24.08
2023-06-28T19:22:13.854Z,23.91
2023-06-28T19:26:16.414Z,23.74
2023-06-28T19:30:20.329Z,23.50
2023-06-28T19:34:22.883Z,23.33
2023-06-28T19:38:25.487Z,23.09
2023-06-28T19:42:28.148Z,22.74
2023-06-28T19:46:32.051Z,22.53
2023-06-28T19:50:34.650Z,22.38
2023-06-28T19:54:37.349Z,22.06
2023-06-28T19:58:40.392Z,22.05
2023-06-28T20:02:45.226Z,21.99
2023-06-28T20:06:47.876Z,21.83
2023-06-28T20:10:50.552Z,21.49
2023-06-28T20:14:53.108Z,20.81
2023-06-28T20:18:57.290Z,20.81
2023-06-28T20:22:59.845Z,20.71
2023-06-28T20:27:02.540Z,20.44
2023-06-28T20:31:05.132Z,20.37
2023-06-28T20:35:10.619Z,20.30
2023-06-28T20:39:13.218Z,19.79
2023-06-28T20:43:18.967Z,19.52
2023-06-28T20:47:22.781Z,19.45
2023-06-28T20:51:26.905Z,19.49
2023-06-28T20:55:29.472Z,19.22
2023-06-28T20:59:32.058Z,18.85
